sensor_id;sensor_type;location;lat;lon;timestamp;temperature;humidity
25248;DHT22;13191;47.472;11.214;2023-04-24T00:00:04;10.10;99.90
25248;DHT22;13191;47.472;11.214;2023-04-24T00:02:37;10.10;99.90
25248;DHT22;13191;47.472;11.214;2023-04-24T00:05:07;10.10;99.90
25248;DHT22;13191;47.472;11.214;2023-04-24T00:07:33;10.00;99.90
25248;DHT22;13191;47.472;11.214;2023-04-24T00:09:58;10.00;99.90
25248;DHT22;13191;47.472;11.214;2023-04-24T00:12:24;10.00;99.90
25248;DHT22;13191;47.472;11.214;2023-04-24T00:14:50;10.00;99.90
25248;DHT22;13191;47.472;11.214;2023-04-24T00:17:15;10.00;99.90
25248;DHT22;13191;47.472;11.214;2023-04-24T00:19:41;10.00;99.90
25248;DHT22;13191;47.472;11.214;2023-04-24T00:22:07;10.00;99.90
25248;DHT22;13191;47.472;11.214;2023-04-24T00:24:34;10.00;99.90
25248;DHT22;13191;47.472;11.214;2023-04-24T00:26:59;9.90;99.90
25248;DHT22;13191;47.472;11.214;2023-04-24T00:29:26;9.90;99.90
25248;DHT22;13191;47.472;11.214;2023-04-24T00:31:52;9.90;99.90
25248;DHT22;13191;47.472;11.214;2023-04-24T00:34:17;9.90;99.90
25248;DHT22;13191;47.472;11.214;2023-04-24T00:36:43;9.90;99.90
25248;DHT22;13191;47.472;11.214;2023-04-24T00:39:08;9.90;99.90
25248;DHT22;13191;47.472;11.214;2023-04-24T00:41:35;9.90;99.90
25248;DHT22;13191;47.472;11.214;2023-04-24T00:44:00;9.90;99.90
25248;DHT22;13191;47.472;11.214;2023-04-24T00:46:26;9.80;99.90
25248;DHT22;13191;47.472;11.214;2023-04-24T00:48:52;9.80;99.90
25248;DHT22;13191;47.472;11.214;2023-04-24T00:51:17;9.70;99.90
25248;DHT22;13191;47.472;11.214;2023-04-24T00:53:43;9.70;99.90
25248;DHT22;13191;47.472;11.214;2023-04-24T00:56:08;9.70;99.90
25248;DHT22;13191;47.472;11.214;2023-04-24T00:58:34;9.70;99.90
25248;DHT22;13191;47.472;11.214;2023-04-24T01:01:00;9.70;99.90
25248;DHT22;13191;47.472;11.214;2023-04-24T01:03:28;9.70;99.90
25248;DHT22;13191;47.472;11.214;2023-04-24T01:05:55;9.60;99.90
25248;DHT22;13191;47.472;11.214;2023-04-24T01:08:20;9.60;99.90
25248;DHT22;13191;47.472;11.214;2023-04-24T01:10:48;9.60;99.90
25248;DHT22;13191;47.472;11.214;2023-04-24T01:13:14;9.60;99.90
25248;DHT22;13191;47.472;11.214;2023-04-24T01:15:40;9.60;99.90
25248;DHT22;13191;47.472;11.214;2023-04-24T01:18:05;9.70;99.90
25248;DHT22;13191;47.472;11.214;2023-04-24T01:20:31;9.60;99.90
25248;DHT22;13191;47.472;11.214;2023-04-24T01:22:57;9.60;99.90
25248;DHT22;13191;47.472;11.214;2023-04-24T01:25:23;9.60;99.90
25248;DHT22;13191;47.472;11.214;2023-04-24T01:27:49;9.60;99.90
25248;DHT22;13191;47.472;11.214;2023-04-24T01:30:15;9.50;99.90
25248;DHT22;13191;47.472;11.214;2023-04-24T01:32:40;9.50;99.90
25248;DHT22;13191;47.472;11.214;2023-04-24T01:35:07;9.50;99.90
25248;DHT22;13191;47.472;11.214;2023-04-24T01:37:33;9.50;99.90
25248;DHT22;13191;47.472;11.214;2023-04-24T01:39:58;9.40;99.90
25248;DHT22;13191;47.472;11.214;2023-04-24T01:42:24;9.40;99.90
25248;DHT22;13191;47.472;11.214;2023-04-24T01:44:50;9.40;99.90
25248;DHT22;13191;47.472;11.214;2023-04-24T01:47:16;9.40;99.90
25248;DHT22;13191;47.472;11.214;2023-04-24T01:49:41;9.40;99.90
25248;DHT22;13191;47.472;11.214;2023-04-24T01:52:07;9.40;99.90
25248;DHT22;13191;47.472;11.214;2023-04-24T01:54:32;9.20;99.90
25248;DHT22;13191;47.472;11.214;2023-04-24T01:56:58;9.00;99.90
25248;DHT22;13191;47.472;11.214;2023-04-24T01:59:26;9.00;99.90
25248;DHT22;13191;47.472;11.214;2023-04-24T02:01:53;9.10;99.90
25248;DHT22;13191;47.472;11.214;2023-04-24T02:04:18;9.10;99.90
25248;DHT22;13191;47.472;11.214;2023-04-24T02:06:43;9.10;99.90
25248;DHT22;13191;47.472;11.214;2023-04-24T02:09:09;9.10;99.90
25248;DHT22;13191;47.472;11.214;2023-04-24T02:11:36;9.00;99.90
25248;DHT22;13191;47.472;11.214;2023-04-24T02:14:01;9.00;99.90
25248;DHT22;13191;47.472;11.214;2023-04-24T02:16:27;9.00;99.90
25248;DHT22;13191;47.472;11.214;2023-04-24T02:18:55;9.00;99.90
25248;DHT22;13191;47.472;11.214;2023-04-24T02:21:21;9.00;99.90
25248;DHT22;13191;47.472;11.214;2023-04-24T02:23:46;9.10;99.90
25248;DHT22;13191;47.472;11.214;2023-04-24T02:26:12;9.00;99.90
25248;DHT22;13191;47.472;11.214;2023-04-24T02:28:37;9.10;99.90
25248;DHT22;13191;47.472;11.214;2023-04-24T02:31:03;9.10;99.90
25248;DHT22;13191;47.472;11.214;2023-04-24T02:33:28;9.10;99.90
25248;DHT22;13191;47.472;11.214;2023-04-24T02:35:54;9.10;99.90
25248;DHT22;13191;47.472;11.214;2023-04-24T02:38:19;8.90;99.90
25248;DHT22;13191;47.472;11.214;2023-04-24T02:40:44;8.90;99.90
25248;DHT22;13191;47.472;11.214;2023-04-24T02:43:10;8.80;99.90
25248;DHT22;13191;47.472;11.214;2023-04-24T02:45:35;8.90;99.90
25248;DHT22;13191;47.472;11.214;2023-04-24T02:48:01;8.80;99.90
25248;DHT22;13191;47.472;11.214;2023-04-24T02:52:52;8.70;99.90
25248;DHT22;13191;47.472;11.214;2023-04-24T02:55:18;8.60;99.90
25248;DHT22;13191;47.472;11.214;2023-04-24T02:57:43;8.50;99.90
25248;DHT22;13191;47.472;11.214;2023-04-24T03:00:09;8.50;99.90
25248;DHT22;13191;47.472;11.214;2023-04-24T03:02:34;8.40;99.90
25248;DHT22;13191;47.472;11.214;2023-04-24T03:05:00;8.40;99.90
25248;DHT22;13191;47.472;11.214;2023-04-24T03:07:25;8.40;99.90
25248;DHT22;13191;47.472;11.214;2023-04-24T03:09:51;8.40;99.90
25248;DHT22;13191;47.472;11.214;2023-04-24T03:12:16;8.50;99.90
25248;DHT22;13191;47.472;11.214;2023-04-24T03:14:43;8.50;99.90
25248;DHT22;13191;47.472;11.214;2023-04-24T03:17:08;8.50;99.90
25248;DHT22;13191;47.472;11.214;2023-04-24T03:19:34;8.50;99.90
25248;DHT22;13191;47.472;11.214;2023-04-24T03:22:01;8.50;99.90
25248;DHT22;13191;47.472;11.214;2023-04-24T03:24:26;8.50;99.90
25248;DHT22;13191;47.472;11.214;2023-04-24T03:26:53;8.50;99.90
25248;DHT22;13191;47.472;11.214;2023-04-24T03:29:18;8.50;99.90
25248;DHT22;13191;47.472;11.214;2023-04-24T03:31:44;8.50;99.90
25248;DHT22;13191;47.472;11.214;2023-04-24T03:34:09;8.50;99.90
25248;DHT22;13191;47.472;11.214;2023-04-24T03:36:35;8.50;99.90
25248;DHT22;13191;47.472;11.214;2023-04-24T03:39:00;8.50;99.90
25248;DHT22;13191;47.472;11.214;2023-04-24T03:41:26;8.50;99.90
25248;DHT22;13191;47.472;11.214;2023-04-24T03:43:51;8.60;99.90
25248;DHT22;13191;47.472;11.214;2023-04-24T03:46:17;8.50;99.90
25248;DHT22;13191;47.472;11.214;2023-04-24T03:48:42;8.50;99.90
25248;DHT22;13191;47.472;11.214;2023-04-24T03:51:07;8.50;99.90
25248;DHT22;13191;47.472;11.214;2023-04-24T03:53:33;8.40;99.90
25248;DHT22;13191;47.472;11.214;2023-04-24T03:55:58;8.40;99.90
25248;DHT22;13191;47.472;11.214;2023-04-24T03:58:24;8.40;99.90
25248;DHT22;13191;47.472;11.214;2023-04-24T04:00:49;8.40;99.90
25248;DHT22;13191;47.472;11.214;2023-04-24T04:03:15;8.40;99.90
25248;DHT22;13191;47.472;11.214;2023-04-24T04:05:41;8.50;99.90
25248;DHT22;13191;47.472;11.214;2023-04-24T04:08:06;8.50;99.90
25248;DHT22;13191;47.472;11.214;2023-04-24T04:10:32;8.50;99.90
25248;DHT22;13191;47.472;11.214;2023-04-24T04:12:57;8.50;99.90
25248;DHT22;13191;47.472;11.214;2023-04-24T04:15:23;8.50;99.90
25248;DHT22;13191;47.472;11.214;2023-04-24T04:17:48;8.50;99.90
25248;DHT22;13191;47.472;11.214;2023-04-24T04:20:14;8.50;99.90
25248;DHT22;13191;47.472;11.214;2023-04-24T04:22:39;8.60;99.90
25248;DHT22;13191;47.472;11.214;2023-04-24T04:25:05;8.60;99.90
25248;DHT22;13191;47.472;11.214;2023-04-24T04:27:30;8.50;99.90
25248;DHT22;13191;47.472;11.214;2023-04-24T04:30:00;8.40;99.90
25248;DHT22;13191;47.472;11.214;2023-04-24T04:32:31;8.30;99.90
25248;DHT22;13191;47.472;11.214;2023-04-24T04:34:56;8.30;99.90
25248;DHT22;13191;47.472;11.214;2023-04-24T04:37:22;8.40;99.90
25248;DHT22;13191;47.472;11.214;2023-04-24T04:39:47;8.40;99.90
25248;DHT22;13191;47.472;11.214;2023-04-24T04:42:12;8.30;99.90
25248;DHT22;13191;47.472;11.214;2023-04-24T04:44:38;8.30;99.90
25248;DHT22;13191;47.472;11.214;2023-04-24T04:47:05;8.20;99.90
25248;DHT22;13191;47.472;11.214;2023-04-24T04:49:31;8.20;99.90
25248;DHT22;13191;47.472;11.214;2023-04-24T04:51:56;8.30;99.90
25248;DHT22;13191;47.472;11.214;2023-04-24T04:54:22;8.30;99.90
25248;DHT22;13191;47.472;11.214;2023-04-24T04:56:49;8.30;99.90
25248;DHT22;13191;47.472;11.214;2023-04-24T04:59:15;8.30;99.90
25248;DHT22;13191;47.472;11.214;2023-04-24T05:01:40;8.40;99.90
25248;DHT22;13191;47.472;11.214;2023-04-24T05:04:06;8.40;99.90
25248;DHT22;13191;47.472;11.214;2023-04-24T05:06:31;8.40;99.90
25248;DHT22;13191;47.472;11.214;2023-04-24T05:08:57;8.50;99.90
25248;DHT22;13191;47.472;11.214;2023-04-24T05:11:22;8.50;99.90
25248;DHT22;13191;47.472;11.214;2023-04-24T05:13:48;8.50;99.90
25248;DHT22;13191;47.472;11.214;2023-04-24T05:16:14;8.50;99.90
25248;DHT22;13191;47.472;11.214;2023-04-24T05:18:39;8.60;99.90
25248;DHT22;13191;47.472;11.214;2023-04-24T05:21:05;8.60;99.90
25248;DHT22;13191;47.472;11.214;2023-04-24T05:23:31;8.60;99.90
25248;DHT22;13191;47.472;11.214;2023-04-24T05:25:56;8.50;99.90
25248;DHT22;13191;47.472;11.214;2023-04-24T05:28:22;8.50;99.90
25248;DHT22;13191;47.472;11.214;2023-04-24T05:30:48;8.50;99.90
25248;DHT22;13191;47.472;11.214;2023-04-24T05:33:13;8.50;99.90
25248;DHT22;13191;47.472;11.214;2023-04-24T05:35:40;8.50;99.90
25248;DHT22;13191;47.472;11.214;2023-04-24T05:38:05;8.50;99.90
25248;DHT22;13191;47.472;11.214;2023-04-24T05:40:31;8.60;99.90
25248;DHT22;13191;47.472;11.214;2023-04-24T05:42:56;8.60;99.90
25248;DHT22;13191;47.472;11.214;2023-04-24T05:45:21;8.50;99.90
25248;DHT22;13191;47.472;11.214;2023-04-24T05:47:47;8.50;99.90
25248;DHT22;13191;47.472;11.214;2023-04-24T05:50:13;8.50;99.90
25248;DHT22;13191;47.472;11.214;2023-04-24T05:52:39;8.60;99.90
25248;DHT22;13191;47.472;11.214;2023-04-24T05:55:04;8.60;99.90
25248;DHT22;13191;47.472;11.214;2023-04-24T05:57:30;8.60;99.90
25248;DHT22;13191;47.472;11.214;2023-04-24T05:59:56;8.70;99.90
25248;DHT22;13191;47.472;11.214;2023-04-24T06:02:21;8.70;99.90
25248;DHT22;13191;47.472;11.214;2023-04-24T06:04:47;8.70;99.90
25248;DHT22;13191;47.472;11.214;2023-04-24T06:07:12;8.70;99.90
25248;DHT22;13191;47.472;11.214;2023-04-24T06:09:38;8.70;99.90
25248;DHT22;13191;47.472;11.214;2023-04-24T06:12:03;8.70;99.90
25248;DHT22;13191;47.472;11.214;2023-04-24T06:14:29;8.70;99.90
25248;DHT22;13191;47.472;11.214;2023-04-24T06:16:55;8.70;99.90
25248;DHT22;13191;47.472;11.214;2023-04-24T06:19:20;8.80;99.90
25248;DHT22;13191;47.472;11.214;2023-04-24T06:21:45;8.70;99.90
25248;DHT22;13191;47.472;11.214;2023-04-24T06:24:13;8.60;99.90
25248;DHT22;13191;47.472;11.214;2023-04-24T06:26:38;8.50;99.90
25248;DHT22;13191;47.472;11.214;2023-04-24T06:29:04;8.50;99.90
25248;DHT22;13191;47.472;11.214;2023-04-24T06:31:30;8.50;99.90
25248;DHT22;13191;47.472;11.214;2023-04-24T06:33:55;8.50;99.90
25248;DHT22;13191;47.472;11.214;2023-04-24T06:36:21;8.50;99.90
25248;DHT22;13191;47.472;11.214;2023-04-24T06:38:46;8.60;99.90
25248;DHT22;13191;47.472;11.214;2023-04-24T06:41:12;8.50;99.90
25248;DHT22;13191;47.472;11.214;2023-04-24T06:43:38;8.50;99.90
25248;DHT22;13191;47.472;11.214;2023-04-24T06:46:03;8.50;99.90
25248;DHT22;13191;47.472;11.214;2023-04-24T06:48:30;8.40;99.90
25248;DHT22;13191;47.472;11.214;2023-04-24T06:50:55;8.30;99.90
25248;DHT22;13191;47.472;11.214;2023-04-24T06:53:21;8.40;99.90
25248;DHT22;13191;47.472;11.214;2023-04-24T06:55:46;8.30;99.90
25248;DHT22;13191;47.472;11.214;2023-04-24T06:58:12;8.30;99.90
25248;DHT22;13191;47.472;11.214;2023-04-24T07:00:37;8.30;99.90
25248;DHT22;13191;47.472;11.214;2023-04-24T07:03:03;8.40;99.90
25248;DHT22;13191;47.472;11.214;2023-04-24T07:05:30;8.40;99.90
25248;DHT22;13191;47.472;11.214;2023-04-24T07:07:56;8.40;99.90
25248;DHT22;13191;47.472;11.214;2023-04-24T07:10:23;8.50;99.90
25248;DHT22;13191;47.472;11.214;2023-04-24T07:12:49;8.50;99.90
25248;DHT22;13191;47.472;11.214;2023-04-24T07:15:15;8.60;99.90
25248;DHT22;13191;47.472;11.214;2023-04-24T07:17:41;8.60;99.90
25248;DHT22;13191;47.472;11.214;2023-04-24T07:20:10;8.60;99.90
25248;DHT22;13191;47.472;11.214;2023-04-24T07:22:36;8.70;99.90
25248;DHT22;13191;47.472;11.214;2023-04-24T07:25:01;8.60;99.90
25248;DHT22;13191;47.472;11.214;2023-04-24T07:27:28;8.70;99.90
25248;DHT22;13191;47.472;11.214;2023-04-24T07:29:53;8.70;99.90
25248;DHT22;13191;47.472;11.214;2023-04-24T07:32:19;8.80;99.90
25248;DHT22;13191;47.472;11.214;2023-04-24T07:34:44;8.70;99.90
25248;DHT22;13191;47.472;11.214;2023-04-24T07:37:10;8.70;99.90
25248;DHT22;13191;47.472;11.214;2023-04-24T07:39:36;8.80;99.90
25248;DHT22;13191;47.472;11.214;2023-04-24T07:42:01;8.80;99.90
25248;DHT22;13191;47.472;11.214;2023-04-24T07:44:27;8.90;99.90
25248;DHT22;13191;47.472;11.214;2023-04-24T07:46:53;9.00;99.90
25248;DHT22;13191;47.472;11.214;2023-04-24T07:49:18;9.00;99.90
25248;DHT22;13191;47.472;11.214;2023-04-24T07:51:44;9.00;99.90
25248;DHT22;13191;47.472;11.214;2023-04-24T07:54:10;9.10;99.90
25248;DHT22;13191;47.472;11.214;2023-04-24T07:56:35;9.10;99.90
25248;DHT22;13191;47.472;11.214;2023-04-24T07:59:04;9.20;99.90
25248;DHT22;13191;47.472;11.214;2023-04-24T08:01:29;9.20;99.90
25248;DHT22;13191;47.472;11.214;2023-04-24T08:03:55;9.30;99.90
25248;DHT22;13191;47.472;11.214;2023-04-24T08:06:21;9.30;99.90
25248;DHT22;13191;47.472;11.214;2023-04-24T08:08:46;9.50;99.90
25248;DHT22;13191;47.472;11.214;2023-04-24T08:11:12;9.60;99.90
25248;DHT22;13191;47.472;11.214;2023-04-24T08:13:37;9.60;99.90
25248;DHT22;13191;47.472;11.214;2023-04-24T08:16:03;9.70;99.90
25248;DHT22;13191;47.472;11.214;2023-04-24T08:18:28;9.70;99.90
25248;DHT22;13191;47.472;11.214;2023-04-24T08:20:54;9.70;99.90
25248;DHT22;13191;47.472;11.214;2023-04-24T08:23:19;9.70;99.90
25248;DHT22;13191;47.472;11.214;2023-04-24T08:25:45;9.80;99.90
25248;DHT22;13191;47.472;11.214;2023-04-24T08:28:10;9.70;99.90
25248;DHT22;13191;47.472;11.214;2023-04-24T08:30:36;9.70;99.90
25248;DHT22;13191;47.472;11.214;2023-04-24T08:33:02;9.70;99.90
25248;DHT22;13191;47.472;11.214;2023-04-24T08:35:27;9.70;99.90
25248;DHT22;13191;47.472;11.214;2023-04-24T08:37:53;9.70;99.90
25248;DHT22;13191;47.472;11.214;2023-04-24T08:40:19;9.70;99.90
25248;DHT22;13191;47.472;11.214;2023-04-24T08:42:47;9.60;99.90
25248;DHT22;13191;47.472;11.214;2023-04-24T08:45:13;9.50;99.90
25248;DHT22;13191;47.472;11.214;2023-04-24T08:47:39;9.40;99.90
25248;DHT22;13191;47.472;11.214;2023-04-24T08:50:05;9.50;99.90
25248;DHT22;13191;47.472;11.214;2023-04-24T08:52:32;9.50;99.90
25248;DHT22;13191;47.472;11.214;2023-04-24T08:54:59;9.60;99.90
25248;DHT22;13191;47.472;11.214;2023-04-24T08:57:25;9.70;99.90
25248;DHT22;13191;47.472;11.214;2023-04-24T08:59:51;9.80;99.90
25248;DHT22;13191;47.472;11.214;2023-04-24T09:02:17;9.80;99.90
25248;DHT22;13191;47.472;11.214;2023-04-24T09:04:43;9.90;99.90
25248;DHT22;13191;47.472;11.214;2023-04-24T09:07:09;9.90;99.90
25248;DHT22;13191;47.472;11.214;2023-04-24T09:09:35;9.90;99.90
25248;DHT22;13191;47.472;11.214;2023-04-24T09:12:01;9.90;99.90
25248;DHT22;13191;47.472;11.214;2023-04-24T09:14:27;10.00;99.90
25248;DHT22;13191;47.472;11.214;2023-04-24T09:16:53;9.90;99.90
25248;DHT22;13191;47.472;11.214;2023-04-24T09:19:18;9.90;99.90
25248;DHT22;13191;47.472;11.214;2023-04-24T09:21:47;9.90;99.90
25248;DHT22;13191;47.472;11.214;2023-04-24T09:24:16;9.80;99.90
25248;DHT22;13191;47.472;11.214;2023-04-24T09:26:48;9.70;99.90
25248;DHT22;13191;47.472;11.214;2023-04-24T09:29:14;9.80;99.90
25248;DHT22;13191;47.472;11.214;2023-04-24T09:31:39;9.90;99.90
25248;DHT22;13191;47.472;11.214;2023-04-24T09:34:05;10.00;99.90
25248;DHT22;13191;47.472;11.214;2023-04-24T09:36:37;10.00;99.90
25248;DHT22;13191;47.472;11.214;2023-04-24T09:39:04;10.10;99.90
25248;DHT22;13191;47.472;11.214;2023-04-24T09:41:31;10.10;99.90
25248;DHT22;13191;47.472;11.214;2023-04-24T09:43:57;10.10;99.90
25248;DHT22;13191;47.472;11.214;2023-04-24T09:46:30;10.10;99.90
25248;DHT22;13191;47.472;11.214;2023-04-24T09:48:56;10.10;99.90
25248;DHT22;13191;47.472;11.214;2023-04-24T09:51:33;9.90;99.90
25248;DHT22;13191;47.472;11.214;2023-04-24T09:53:59;9.90;99.90
25248;DHT22;13191;47.472;11.214;2023-04-24T09:56:25;9.80;99.90
25248;DHT22;13191;47.472;11.214;2023-04-24T09:58:51;9.70;99.90
25248;DHT22;13191;47.472;11.214;2023-04-24T10:01:28;9.70;99.90
25248;DHT22;13191;47.472;11.214;2023-04-24T10:03:54;9.70;99.90
25248;DHT22;13191;47.472;11.214;2023-04-24T10:06:19;9.80;99.90
25248;DHT22;13191;47.472;11.214;2023-04-24T10:08:45;9.90;99.90
25248;DHT22;13191;47.472;11.214;2023-04-24T10:11:11;10.00;99.90
25248;DHT22;13191;47.472;11.214;2023-04-24T10:13:39;10.10;99.90
25248;DHT22;13191;47.472;11.214;2023-04-24T10:16:05;10.20;99.90
25248;DHT22;13191;47.472;11.214;2023-04-24T10:18:31;10.20;99.90
25248;DHT22;13191;47.472;11.214;2023-04-24T10:20:57;10.30;99.90
25248;DHT22;13191;47.472;11.214;2023-04-24T10:23:25;10.40;99.90
25248;DHT22;13191;47.472;11.214;2023-04-24T10:25:50;10.30;99.90
25248;DHT22;13191;47.472;11.214;2023-04-24T10:28:16;10.30;99.90
25248;DHT22;13191;47.472;11.214;2023-04-24T10:30:43;10.30;99.90
25248;DHT22;13191;47.472;11.214;2023-04-24T10:33:08;10.10;99.90
25248;DHT22;13191;47.472;11.214;2023-04-24T10:35:35;10.00;99.90
25248;DHT22;13191;47.472;11.214;2023-04-24T10:38:05;10.00;99.90
25248;DHT22;13191;47.472;11.214;2023-04-24T10:40:34;9.90;99.90
25248;DHT22;13191;47.472;11.214;2023-04-24T10:43:03;10.10;99.90
25248;DHT22;13191;47.472;11.214;2023-04-24T10:45:33;10.10;99.90
25248;DHT22;13191;47.472;11.214;2023-04-24T10:50:28;10.10;99.90
25248;DHT22;13191;47.472;11.214;2023-04-24T10:53:04;10.20;99.90
25248;DHT22;13191;47.472;11.214;2023-04-24T10:55:39;10.30;99.90
25248;DHT22;13191;47.472;11.214;2023-04-24T10:58:05;10.20;99.90
25248;DHT22;13191;47.472;11.214;2023-04-24T11:00:31;10.20;99.90
25248;DHT22;13191;47.472;11.214;2023-04-24T11:02:56;10.10;99.90
25248;DHT22;13191;47.472;11.214;2023-04-24T11:05:24;10.00;99.90
25248;DHT22;13191;47.472;11.214;2023-04-24T11:08:12;10.00;99.90
25248;DHT22;13191;47.472;11.214;2023-04-24T11:10:38;10.10;99.90
25248;DHT22;13191;47.472;11.214;2023-04-24T11:13:03;10.20;99.90
25248;DHT22;13191;47.472;11.214;2023-04-24T11:15:29;10.30;99.90
25248;DHT22;13191;47.472;11.214;2023-04-24T11:17:55;10.40;99.90
25248;DHT22;13191;47.472;11.214;2023-04-24T11:20:22;10.30;99.90
25248;DHT22;13191;47.472;11.214;2023-04-24T11:22:48;10.30;99.90
25248;DHT22;13191;47.472;11.214;2023-04-24T11:25:17;10.40;99.90
25248;DHT22;13191;47.472;11.214;2023-04-24T11:27:43;10.40;99.90
25248;DHT22;13191;47.472;11.214;2023-04-24T11:30:09;10.50;99.90
25248;DHT22;13191;47.472;11.214;2023-04-24T11:32:40;10.60;99.90
25248;DHT22;13191;47.472;11.214;2023-04-24T11:35:07;10.70;99.90
25248;DHT22;13191;47.472;11.214;2023-04-24T11:37:37;10.80;99.90
25248;DHT22;13191;47.472;11.214;2023-04-24T11:40:03;10.90;99.90
25248;DHT22;13191;47.472;11.214;2023-04-24T11:42:33;10.80;99.90
25248;DHT22;13191;47.472;11.214;2023-04-24T11:44:59;10.80;99.90
25248;DHT22;13191;47.472;11.214;2023-04-24T11:47:28;10.60;99.90
25248;DHT22;13191;47.472;11.214;2023-04-24T11:49:54;10.50;99.90
25248;DHT22;13191;47.472;11.214;2023-04-24T11:52:20;10.60;99.90
25248;DHT22;13191;47.472;11.214;2023-04-24T11:54:49;10.70;99.90
25248;DHT22;13191;47.472;11.214;2023-04-24T11:57:15;10.70;99.90
25248;DHT22;13191;47.472;11.214;2023-04-24T11:59:41;10.80;99.90
25248;DHT22;13191;47.472;11.214;2023-04-24T12:02:06;10.80;99.90
25248;DHT22;13191;47.472;11.214;2023-04-24T12:04:41;10.70;99.90
25248;DHT22;13191;47.472;11.214;2023-04-24T12:07:07;10.70;99.90
25248;DHT22;13191;47.472;11.214;2023-04-24T12:09:40;10.70;99.90
25248;DHT22;13191;47.472;11.214;2023-04-24T12:12:06;10.60;99.90
25248;DHT22;13191;47.472;11.214;2023-04-24T12:14:31;10.70;99.90
25248;DHT22;13191;47.472;11.214;2023-04-24T12:16:57;10.60;99.90
25248;DHT22;13191;47.472;11.214;2023-04-24T12:19:23;10.80;99.90
25248;DHT22;13191;47.472;11.214;2023-04-24T12:24:26;10.80;99.90
25248;DHT22;13191;47.472;11.214;2023-04-24T12:26:52;10.90;99.90
25248;DHT22;13191;47.472;11.214;2023-04-24T12:29:22;10.90;99.90
25248;DHT22;13191;47.472;11.214;2023-04-24T12:31:47;10.80;99.90
25248;DHT22;13191;47.472;11.214;2023-04-24T12:34:23;10.60;99.90
25248;DHT22;13191;47.472;11.214;2023-04-24T12:36:48;10.30;99.90
25248;DHT22;13191;47.472;11.214;2023-04-24T12:39:15;10.20;99.90
25248;DHT22;13191;47.472;11.214;2023-04-24T12:41:57;10.10;99.90
25248;DHT22;13191;47.472;11.214;2023-04-24T12:44:32;10.10;99.90
25248;DHT22;13191;47.472;11.214;2023-04-24T12:47:00;10.10;99.90
25248;DHT22;13191;47.472;11.214;2023-04-24T12:49:25;10.10;99.90
25248;DHT22;13191;47.472;11.214;2023-04-24T12:51:51;10.10;99.90
25248;DHT22;13191;47.472;11.214;2023-04-24T12:54:16;10.20;99.90
25248;DHT22;13191;47.472;11.214;2023-04-24T12:56:42;10.40;99.90
25248;DHT22;13191;47.472;11.214;2023-04-24T12:59:07;10.50;99.90
25248;DHT22;13191;47.472;11.214;2023-04-24T13:01:33;10.50;99.90
25248;DHT22;13191;47.472;11.214;2023-04-24T13:03:58;10.60;99.90
25248;DHT22;13191;47.472;11.214;2023-04-24T13:06:24;10.80;99.90
25248;DHT22;13191;47.472;11.214;2023-04-24T13:08:49;10.90;99.90
25248;DHT22;13191;47.472;11.214;2023-04-24T13:11:16;11.10;99.90
25248;DHT22;13191;47.472;11.214;2023-04-24T13:13:42;11.00;99.90
25248;DHT22;13191;47.472;11.214;2023-04-24T13:16:10;11.00;99.90
25248;DHT22;13191;47.472;11.214;2023-04-24T13:18:36;11.10;99.90
25248;DHT22;13191;47.472;11.214;2023-04-24T13:21:01;11.30;99.90
25248;DHT22;13191;47.472;11.214;2023-04-24T13:23:27;11.50;99.90
25248;DHT22;13191;47.472;11.214;2023-04-24T13:25:53;11.70;99.90
25248;DHT22;13191;47.472;11.214;2023-04-24T13:28:20;11.60;99.90
25248;DHT22;13191;47.472;11.214;2023-04-24T13:30:46;11.40;99.90
25248;DHT22;13191;47.472;11.214;2023-04-24T13:33:11;11.30;99.90
25248;DHT22;13191;47.472;11.214;2023-04-24T13:35:37;11.30;99.90
25248;DHT22;13191;47.472;11.214;2023-04-24T13:38:02;11.40;99.90
25248;DHT22;13191;47.472;11.214;2023-04-24T13:40:31;11.40;99.90
25248;DHT22;13191;47.472;11.214;2023-04-24T13:42:56;11.40;99.90
25248;DHT22;13191;47.472;11.214;2023-04-24T13:45:22;11.40;99.90
25248;DHT22;13191;47.472;11.214;2023-04-24T13:47:47;11.30;99.90
25248;DHT22;13191;47.472;11.214;2023-04-24T13:50:12;11.40;99.90
25248;DHT22;13191;47.472;11.214;2023-04-24T13:52:38;11.50;99.90
25248;DHT22;13191;47.472;11.214;2023-04-24T13:55:03;11.50;99.90
25248;DHT22;13191;47.472;11.214;2023-04-24T13:57:29;11.20;99.90
25248;DHT22;13191;47.472;11.214;2023-04-24T13:59:57;11.20;99.90
25248;DHT22;13191;47.472;11.214;2023-04-24T14:02:26;11.10;99.90
25248;DHT22;13191;47.472;11.214;2023-04-24T14:04:52;11.10;99.90
25248;DHT22;13191;47.472;11.214;2023-04-24T14:07:17;11.00;99.90
25248;DHT22;13191;47.472;11.214;2023-04-24T14:09:43;11.00;99.90
25248;DHT22;13191;47.472;11.214;2023-04-24T14:12:08;11.10;99.90
25248;DHT22;13191;47.472;11.214;2023-04-24T14:14:34;11.10;99.90
25248;DHT22;13191;47.472;11.214;2023-04-24T14:16:59;11.30;99.90
25248;DHT22;13191;47.472;11.214;2023-04-24T14:19:25;11.40;99.90
25248;DHT22;13191;47.472;11.214;2023-04-24T14:21:50;11.60;99.90
25248;DHT22;13191;47.472;11.214;2023-04-24T14:24:16;11.80;99.90
25248;DHT22;13191;47.472;11.214;2023-04-24T14:26:41;12.00;99.90
25248;DHT22;13191;47.472;11.214;2023-04-24T14:29:07;12.30;99.90
25248;DHT22;13191;47.472;11.214;2023-04-24T14:31:32;12.20;99.90
25248;DHT22;13191;47.472;11.214;2023-04-24T14:33:58;12.10;99.90
25248;DHT22;13191;47.472;11.214;2023-04-24T14:36:23;12.10;99.90
25248;DHT22;13191;47.472;11.214;2023-04-24T14:38:49;12.30;99.90
25248;DHT22;13191;47.472;11.214;2023-04-24T14:41:14;12.20;99.90
25248;DHT22;13191;47.472;11.214;2023-04-24T14:43:40;12.10;99.90
25248;DHT22;13191;47.472;11.214;2023-04-24T14:46:05;12.10;99.90
25248;DHT22;13191;47.472;11.214;2023-04-24T14:48:31;12.10;99.90
25248;DHT22;13191;47.472;11.214;2023-04-24T14:50:56;12.00;99.90
25248;DHT22;13191;47.472;11.214;2023-04-24T14:53:22;11.90;99.90
25248;DHT22;13191;47.472;11.214;2023-04-24T14:55:47;11.60;99.90
25248;DHT22;13191;47.472;11.214;2023-04-24T14:58:13;11.40;99.90
25248;DHT22;13191;47.472;11.214;2023-04-24T15:00:39;11.30;99.90
25248;DHT22;13191;47.472;11.214;2023-04-24T15:03:04;11.10;99.90
25248;DHT22;13191;47.472;11.214;2023-04-24T15:05:30;11.00;99.90
25248;DHT22;13191;47.472;11.214;2023-04-24T15:07:55;10.90;99.90
25248;DHT22;13191;47.472;11.214;2023-04-24T15:10:24;10.80;99.90
25248;DHT22;13191;47.472;11.214;2023-04-24T15:12:51;10.50;99.90
25248;DHT22;13191;47.472;11.214;2023-04-24T15:15:17;10.30;99.90
25248;DHT22;13191;47.472;11.214;2023-04-24T15:17:42;10.30;99.90
25248;DHT22;13191;47.472;11.214;2023-04-24T15:20:08;10.20;99.90
25248;DHT22;13191;47.472;11.214;2023-04-24T15:25:00;9.70;99.90
25248;DHT22;13191;47.472;11.214;2023-04-24T15:27:27;9.60;99.90